Time;durP1;ratioP1;P1;durP2;ratioP2;P2;SDS_P1;SDS_P2;PMS_P1;PMS_P2;Temp;Humidity;BMP_temperature;BMP_pressure;BME280_temperature;BME280_humidity;BME280_pressure;Samples;Min_cycle;Max_cycle;Signal;HPM_P1;HPM_P2
2021/09/05 00:00:40;;;;;;;42.37;27.80;;;13.60;99.90;;;;;;4966410;28;20454;-84
2021/09/05 00:03:06;;;;;;;15.90;10.97;;;13.60;99.90;;;;;;4966283;28;20474;-83
2021/09/05 00:05:33;;;;;;;13.67;10.30;;;13.70;99.90;;;;;;4966370;28;20478;-83
2021/09/05 00:07:59;;;;;;;12.47;9.40;;;13.70;99.90;;;;;;4964424;28;20490;-83
2021/09/05 00:10:26;;;;;;;14.33;10.40;;;13.70;99.90;;;;;;4964567;28;20435;-83
2021/09/05 00:12:54;;;;;;;16.13;11.30;;;13.50;99.90;;;;;;4962856;28;20455;-84
2021/09/05 00:15:21;;;;;;;17.70;11.53;;;13.50;99.90;;;;;;4964480;28;20451;-83
2021/09/05 00:17:47;;;;;;;14.40;10.00;;;13.50;99.90;;;;;;4967200;28;20447;-83
2021/09/05 00:20:14;;;;;;;30.17;11.97;;;13.50;99.90;;;;;;4979503;28;20438;-81
2021/09/05 00:22:40;;;;;;;21.40;12.13;;;13.60;99.90;;;;;;4981431;28;20454;-81
2021/09/05 00:25:09;;;;;;;17.40;11.07;;;13.60;99.90;;;;;;4980843;28;20442;-83
2021/09/05 00:27:36;;;;;;;16.43;11.30;;;13.40;99.90;;;;;;4980656;28;20489;-83
2021/09/05 00:30:04;;;;;;;17.67;11.93;;;13.50;99.90;;;;;;4980164;28;20466;-83
2021/09/05 00:32:31;;;;;;;15.10;11.80;;;13.50;99.90;;;;;;4981202;28;20454;-83
2021/09/05 00:34:57;;;;;;;17.03;12.13;;;13.40;99.90;;;;;;4980638;28;20442;-83
2021/09/05 00:37:24;;;;;;;16.57;11.83;;;13.50;99.90;;;;;;4979437;28;20821;-82
2021/09/05 00:39:50;;;;;;;17.83;13.00;;;13.10;99.90;;;;;;4974009;28;20497;-82
2021/09/05 00:42:23;;;;;;;18.87;12.53;;;13.40;99.90;;;;;;4973792;28;20450;-82
2021/09/05 00:44:49;;;;;;;17.63;12.10;;;13.30;99.90;;;;;;4972631;28;20454;-82
2021/09/05 00:47:17;;;;;;;22.57;13.87;;;13.30;99.90;;;;;;4974243;28;20482;-83
2021/09/05 00:49:44;;;;;;;15.70;12.13;;;13.30;99.90;;;;;;4975653;28;20486;-83
2021/09/05 00:52:11;;;;;;;19.60;13.77;;;13.30;99.90;;;;;;4976805;28;20471;-82
2021/09/05 00:54:41;;;;;;;19.87;12.80;;;13.30;99.90;;;;;;4978474;28;20472;-83
2021/09/05 00:57:10;;;;;;;25.63;12.57;;;13.40;99.90;;;;;;4964573;28;20975;-82
2021/09/05 00:59:39;;;;;;;19.13;13.70;;;13.30;99.90;;;;;;4962681;28;20477;-83
2021/09/05 01:02:06;;;;;;;25.20;13.40;;;13.30;99.90;;;;;;4968964;28;20454;-82
2021/09/05 01:04:33;;;;;;;24.43;13.03;;;13.30;99.90;;;;;;4969539;28;20957;-83
2021/09/05 01:07:00;;;;;;;22.23;13.30;;;13.30;99.90;;;;;;4971158;28;20474;-83
2021/09/05 01:09:28;;;;;;;18.93;13.77;;;13.30;99.90;;;;;;4964170;28;20588;-82
2021/09/05 01:11:55;;;;;;;27.70;13.93;;;13.30;99.90;;;;;;4963499;28;20482;-83
2021/09/05 01:14:24;;;;;;;16.70;12.73;;;13.10;99.90;;;;;;4977935;28;20435;-82
2021/09/05 01:16:53;;;;;;;24.80;14.77;;;13.20;99.90;;;;;;4962619;28;20458;-83
2021/09/05 01:19:21;;;;;;;18.40;13.57;;;13.10;99.90;;;;;;4962990;28;20930;-83
2021/09/05 01:21:51;;;;;;;27.10;15.23;;;13.20;99.90;;;;;;4966834;28;20478;-82
2021/09/05 01:24:20;;;;;;;20.93;13.90;;;13.20;99.90;;;;;;4964451;28;20439;-81
2021/09/05 01:26:49;;;;;;;20.87;12.67;;;13.20;99.90;;;;;;4968363;28;20456;-82
2021/09/05 01:29:18;;;;;;;23.10;15.13;;;13.20;99.90;;;;;;4962665;28;21032;-84
2021/09/05 01:31:47;;;;;;;22.27;15.30;;;13.10;99.90;;;;;;4962297;28;20451;-81
2021/09/05 01:34:15;;;;;;;25.80;16.10;;;13.10;99.90;;;;;;4962865;28;20505;-83
2021/09/05 01:36:43;;;;;;;21.40;15.10;;;13.20;99.90;;;;;;4966628;28;20450;-81
2021/09/05 01:39:12;;;;;;;21.93;15.03;;;13.10;99.90;;;;;;4967665;28;20885;-84
2021/09/05 01:41:39;;;;;;;24.90;15.10;;;13.10;99.90;;;;;;4963195;28;20514;-82
2021/09/05 01:44:08;;;;;;;22.20;15.37;;;13.10;99.90;;;;;;4976928;28;20482;-82
2021/09/05 01:46:36;;;;;;;21.80;14.80;;;13.10;99.90;;;;;;4979780;28;20439;-81
2021/09/05 01:49:04;;;;;;;27.97;16.77;;;13.10;99.90;;;;;;4978783;28;20969;-81
2021/09/05 01:51:31;;;;;;;25.30;16.80;;;13.10;99.90;;;;;;4978498;28;20462;-82
2021/09/05 01:53:58;;;;;;;22.30;15.97;;;13.20;99.90;;;;;;4978474;28;20430;-80
2021/09/05 01:56:25;;;;;;;25.97;17.13;;;13.00;99.90;;;;;;4976036;28;20503;-81
2021/09/05 01:58:52;;;;;;;27.10;17.03;;;13.00;99.90;;;;;;4973519;28;20463;-82
2021/09/05 02:01:18;;;;;;;27.43;16.80;;;13.00;99.90;;;;;;4969283;28;20502;-83
2021/09/05 02:03:47;;;;;;;29.93;16.30;;;13.10;99.90;;;;;;4963738;28;20451;-83
2021/09/05 02:06:14;;;;;;;21.53;15.50;;;13.00;99.90;;;;;;4968587;28;20447;-83
2021/09/05 02:08:40;;;;;;;22.57;16.23;;;13.00;99.90;;;;;;4970586;28;20513;-81
2021/09/05 02:11:07;;;;;;;25.23;15.30;;;12.90;99.90;;;;;;4968067;28;20455;-83
2021/09/05 02:13:33;;;;;;;25.23;15.57;;;12.80;99.90;;;;;;4962123;28;20879;-83
2021/09/05 02:16:00;;;;;;;22.23;14.73;;;12.90;99.90;;;;;;4960337;28;20446;-84
2021/09/05 02:18:27;;;;;;;29.93;17.43;;;13.00;99.90;;;;;;4960634;28;20480;-84
2021/09/05 02:20:56;;;;;;;26.27;14.53;;;12.90;99.90;;;;;;4963700;28;20478;-83
2021/09/05 02:23:22;;;;;;;25.13;17.03;;;12.90;99.90;;;;;;4961981;28;20447;-82
2021/09/05 02:25:49;;;;;;;20.70;15.90;;;13.00;99.90;;;;;;4960120;28;20554;-82
2021/09/05 02:28:16;;;;;;;22.80;15.47;;;13.10;99.90;;;;;;4964550;28;20514;-82
2021/09/05 02:30:42;;;;;;;24.17;16.13;;;13.10;99.90;;;;;;4966889;28;20451;-83
2021/09/05 02:33:09;;;;;;;30.10;15.77;;;13.10;99.90;;;;;;4972677;28;20463;-82
2021/09/05 02:35:36;;;;;;;24.23;17.10;;;13.20;99.90;;;;;;4971847;28;20455;-83
2021/09/05 02:38:04;;;;;;;22.00;15.97;;;13.20;99.90;;;;;;4965900;28;20832;-83
2021/09/05 02:40:33;;;;;;;29.47;17.87;;;13.10;99.90;;;;;;4960827;28;20521;-83
2021/09/05 02:43:00;;;;;;;23.90;17.23;;;13.10;99.90;;;;;;4961387;28;20455;-83
2021/09/05 02:45:26;;;;;;;25.30;16.10;;;13.10;99.90;;;;;;4961893;28;20488;-83
2021/09/05 02:47:53;;;;;;;20.83;16.30;;;13.00;99.90;;;;;;4961753;28;20517;-83
2021/09/05 02:50:20;;;;;;;24.73;16.30;;;13.10;99.90;;;;;;4961983;28;20841;-83
2021/09/05 02:52:46;;;;;;;24.50;15.87;;;13.00;99.90;;;;;;4967195;28;20455;-83
2021/09/05 02:55:14;;;;;;;24.63;17.23;;;12.90;99.90;;;;;;4970768;28;20455;-83
2021/09/05 02:57:41;;;;;;;27.53;17.63;;;12.90;99.90;;;;;;4960442;28;20506;-83
2021/09/05 03:00:09;;;;;;;25.13;18.13;;;12.90;99.90;;;;;;4964100;29;20482;-82
2021/09/05 03:02:35;;;;;;;29.63;19.20;;;12.90;99.90;;;;;;4971365;28;20517;-83
2021/09/05 03:05:02;;;;;;;25.77;17.70;;;12.80;99.90;;;;;;4960207;28;20435;-83
2021/09/05 03:07:28;;;;;;;26.93;17.67;;;12.70;99.90;;;;;;4962605;28;20451;-83
2021/09/05 03:09:55;;;;;;;28.63;16.87;;;12.70;99.90;;;;;;4960688;28;20513;-83
2021/09/05 03:12:23;;;;;;;27.97;17.80;;;12.70;99.90;;;;;;4959244;28;20454;-83
2021/09/05 03:14:50;;;;;;;26.40;18.07;;;12.70;99.90;;;;;;4961874;28;20817;-84
2021/09/05 03:17:17;;;;;;;25.80;16.47;;;12.70;99.90;;;;;;4959265;28;20455;-83
2021/09/05 03:19:43;;;;;;;25.00;18.00;;;12.70;99.90;;;;;;4959907;28;20467;-83
2021/09/05 03:22:10;;;;;;;24.73;17.80;;;12.70;99.90;;;;;;4959958;28;20563;-83
2021/09/05 03:24:37;;;;;;;22.57;16.80;;;12.80;99.90;;;;;;4958740;28;20474;-82
2021/09/05 03:27:04;;;;;;;21.80;17.30;;;12.70;99.90;;;;;;4958790;28;20953;-83
2021/09/05 03:29:32;;;;;;;25.87;17.27;;;12.60;99.90;;;;;;4961350;28;20498;-83
2021/09/05 03:31:58;;;;;;;24.43;17.80;;;12.70;99.90;;;;;;4961966;28;20459;-82
2021/09/05 03:34:25;;;;;;;25.43;17.27;;;12.70;99.90;;;;;;4960724;28;20454;-83
2021/09/05 03:36:52;;;;;;;23.40;17.13;;;12.70;99.90;;;;;;4960473;28;20803;-83
2021/09/05 03:39:18;;;;;;;22.27;16.40;;;13.00;99.90;;;;;;4959652;28;20463;-82
2021/09/05 03:41:45;;;;;;;24.13;17.53;;;12.70;99.90;;;;;;4960477;28;20455;-84
2021/09/05 03:44:11;;;;;;;24.73;15.60;;;12.70;99.90;;;;;;4959400;28;20450;-83
2021/09/05 03:46:39;;;;;;;24.10;16.53;;;12.70;99.90;;;;;;4958835;28;20454;-84
2021/09/05 03:49:06;;;;;;;24.63;16.23;;;12.80;99.90;;;;;;4960510;28;20466;-83
2021/09/05 03:51:32;;;;;;;28.23;18.43;;;12.80;99.90;;;;;;4960680;28;20472;-83
2021/09/05 03:53:59;;;;;;;26.10;17.67;;;12.80;99.90;;;;;;4959548;28;20458;-83
2021/09/05 03:56:26;;;;;;;22.67;18.17;;;12.80;99.90;;;;;;4960097;28;20449;-83
2021/09/05 03:58:52;;;;;;;25.17;17.10;;;12.70;99.90;;;;;;4961297;28;20838;-83
2021/09/05 04:01:19;;;;;;;26.33;18.27;;;12.70;99.90;;;;;;4959066;28;20450;-82
2021/09/05 04:03:47;;;;;;;32.10;17.63;;;12.80;99.90;;;;;;4973442;28;20450;-83
2021/09/05 04:06:14;;;;;;;28.90;18.80;;;12.70;99.90;;;;;;4972375;28;20521;-83
2021/09/05 04:08:42;;;;;;;24.23;17.43;;;12.70;99.90;;;;;;4962649;28;20529;-83
2021/09/05 04:11:08;;;;;;;32.47;17.63;;;12.70;99.90;;;;;;4962060;28;20824;-83
2021/09/05 04:13:35;;;;;;;30.07;19.20;;;12.50;99.90;;;;;;4961670;28;20501;-82
2021/09/05 04:16:02;;;;;;;31.53;18.47;;;12.60;99.90;;;;;;4967188;28;20465;-82
2021/09/05 04:18:28;;;;;;;22.40;16.43;;;12.60;99.90;;;;;;4972666;28;20490;-82
2021/09/05 04:20:56;;;;;;;28.30;16.90;;;12.60;99.90;;;;;;4972356;28;20451;-82
2021/09/05 04:23:23;;;;;;;25.73;18.20;;;12.60;99.90;;;;;;4966274;28;20658;-80
2021/09/05 04:25:50;;;;;;;28.07;18.00;;;12.60;99.90;;;;;;4976443;28;20470;-81
2021/09/05 04:28:16;;;;;;;26.23;17.50;;;12.60;99.90;;;;;;4976908;28;20439;-80
2021/09/05 04:30:43;;;;;;;24.13;16.63;;;12.60;99.90;;;;;;4977183;28;20443;-80
2021/09/05 04:33:11;;;;;;;25.80;14.83;;;12.60;99.90;;;;;;4976072;28;20459;-80
2021/09/05 04:35:37;;;;;;;24.97;17.23;;;12.60;99.90;;;;;;4973482;28;20506;-80
2021/09/05 04:38:05;;;;;;;28.03;17.40;;;12.60;99.90;;;;;;4969859;28;20494;-84
2021/09/05 04:40:32;;;;;;;24.80;16.90;;;12.60;99.90;;;;;;4962784;28;20949;-82
2021/09/05 04:42:59;;;;;;;24.80;17.17;;;12.60;99.90;;;;;;4982143;28;20438;-81
2021/09/05 04:45:26;;;;;;;22.03;14.93;;;12.60;99.90;;;;;;4982096;28;20427;-80
2021/09/05 04:47:52;;;;;;;23.70;16.00;;;12.70;99.90;;;;;;4980586;28;20443;-82
2021/09/05 04:50:19;;;;;;;21.10;16.43;;;12.70;99.90;;;;;;4980746;28;20451;-82
2021/09/05 04:52:45;;;;;;;24.30;16.50;;;12.60;99.90;;;;;;4981820;28;20467;-83
2021/09/05 04:55:13;;;;;;;25.60;16.23;;;12.40;99.90;;;;;;4981857;28;20435;-82
2021/09/05 04:57:40;;;;;;;41.87;29.27;;;12.60;99.90;;;;;;4981584;28;20430;-81
2021/09/05 05:00:08;;;;;;;27.20;18.33;;;12.50;99.90;;;;;;4981056;28;20486;-82
2021/09/05 05:02:35;;;;;;;24.20;17.10;;;12.50;99.90;;;;;;4974788;28;20451;-82
2021/09/05 05:05:02;;;;;;;26.40;17.43;;;12.60;99.90;;;;;;4971343;28;20462;-82
2021/09/05 05:07:28;;;;;;;18.97;14.17;;;12.60;99.90;;;;;;4968040;28;20478;-83
2021/09/05 05:10:15;;;;;;;18.83;14.50;;;12.70;99.90;;;;;;4986733;23;21017;-86
2021/09/05 05:13:28;;;;;;;28.57;14.90;;;12.60;99.90;;;;;;4969371;28;20466;-84
2021/09/05 05:16:17;;;;;;;23.93;15.70;;;13.50;99.90;;;;;;4961581;28;20434;-84
2021/09/05 05:22:06;;;;;;;20.10;13.87;;;13.10;99.90;;;;;;4964240;28;20459;-84
2021/09/05 05:24:46;;;;;;;24.73;14.50;;;12.70;99.90;;;;;;4963361;28;21028;-84
2021/09/05 05:27:24;;;;;;;19.10;15.00;;;12.80;99.90;;;;;;4961709;28;20497;-84
2021/09/05 05:30:23;;;;;;;17.17;12.77;;;12.80;99.90;;;;;;4962744;28;20558;-84
2021/09/05 05:33:10;;;;;;;14.57;11.30;;;12.00;99.90;;;;;;4954563;28;20447;-84
2021/09/05 05:36:08;;;;;;;;;;;;;;;;;;;;;
2021/09/05 05:41:21;;;;;;;16.80;12.00;;;;;;;;;;4963776;28;20459;-84
2021/09/05 05:46:58;;;;;;;19.53;12.00;;;12.90;99.90;;;;;;4962300;28;20458;-84
2021/09/05 05:49:51;;;;;;;16.30;12.27;;;;;;;;;;4998130;23;21027;-84
2021/09/05 05:52:52;;;;;;;15.38;12.30;;;13.00;99.90;;;;;;4965023;28;20935;-84
2021/09/05 05:55:22;;;;;;;18.50;12.17;;;;;;;;;;4965873;28;20270;-84
2021/09/05 05:58:08;;;;;;;15.03;11.90;;;13.00;99.90;;;;;;4970887;28;20513;-84
2021/09/05 06:00:38;;;;;;;18.17;11.53;;;;;;;;;;4943021;29;20510;-84
2021/09/05 06:03:07;;;;;;;17.37;10.90;;;13.10;99.90;;;;;;4943072;29;20451;-84
2021/09/05 06:05:39;;;;;;;15.10;11.10;;;;;;;;;;4949285;28;20439;-82
2021/09/05 06:08:25;;;;;;;14.20;9.73;;;13.10;99.90;;;;;;4957475;28;20445;-83
2021/09/05 06:14:47;;;;;;;12.53;10.30;;;13.20;99.90;;;;;;4939254;29;20455;-83
2021/09/05 06:17:37;;;;;;;11.97;10.10;;;;;;;;;;4882108;29;20529;-84
2021/09/05 06:20:29;;;;;;;15.40;9.52;;;13.30;99.90;;;;;;4975802;23;20452;-83
2021/09/05 06:23:25;;;;;;;11.73;9.70;;;13.20;99.90;;;;;;4960640;28;20213;-83
2021/09/05 06:32:17;;;;;;;14.20;9.70;;;;;;;;;;5032695;23;20502;-86
2021/09/05 06:34:43;;;;;;;12.53;8.40;;;13.40;99.90;;;;;;4958912;29;20474;-86
2021/09/05 06:37:11;;;;;;;15.37;10.40;;;13.50;99.90;;;;;;4958938;28;20828;-86
2021/09/05 06:39:38;;;;;;;10.70;8.50;;;13.40;99.90;;;;;;4958578;28;20447;-86
2021/09/05 06:42:05;;;;;;;9.63;8.27;;;13.50;99.90;;;;;;4959165;28;20509;-86
2021/09/05 06:44:32;;;;;;;10.10;7.63;;;13.60;99.90;;;;;;4959022;28;20865;-86
2021/09/05 06:46:58;;;;;;;11.40;8.57;;;13.60;99.90;;;;;;4959847;28;20842;-86
2021/09/05 06:49:25;;;;;;;10.60;8.40;;;13.70;99.90;;;;;;4960161;28;20490;-86
2021/09/05 06:51:51;;;;;;;11.90;8.60;;;13.80;99.90;;;;;;4960326;28;20467;-86
2021/09/05 06:54:19;;;;;;;9.67;7.93;;;13.80;99.90;;;;;;4960110;28;20454;-86
2021/09/05 06:56:46;;;;;;;10.93;8.60;;;13.90;99.90;;;;;;4958918;28;20454;-87
2021/09/05 06:59:12;;;;;;;10.17;8.10;;;14.10;99.90;;;;;;4959996;28;20521;-87
2021/09/05 07:01:39;;;;;;;10.90;7.80;;;14.00;99.90;;;;;;4959265;28;20451;-87
2021/09/05 07:04:06;;;;;;;10.40;7.60;;;14.30;99.90;;;;;;4960773;28;20612;-87
2021/09/05 07:06:32;;;;;;;10.77;7.43;;;14.10;99.90;;;;;;4959971;28;20814;-87
2021/09/05 07:08:59;;;;;;;8.03;7.20;;;14.20;99.90;;;;;;4960653;28;20941;-87
2021/09/05 07:11:27;;;;;;;11.33;7.53;;;14.10;99.90;;;;;;4961655;28;20533;-86
2021/09/05 07:13:53;;;;;;;10.80;8.70;;;14.20;99.90;;;;;;4960884;28;20447;-86
2021/09/05 07:16:20;;;;;;;10.00;7.40;;;14.10;99.90;;;;;;4959986;28;20479;-86
2021/09/05 07:18:47;;;;;;;8.53;7.67;;;14.20;99.90;;;;;;4960439;28;20517;-87
2021/09/05 07:21:13;;;;;;;11.43;8.50;;;14.00;99.90;;;;;;4961830;28;20505;-87
2021/09/05 07:23:40;;;;;;;9.77;8.20;;;14.20;99.90;;;;;;4959259;28;20489;-87
2021/09/05 07:26:07;;;;;;;10.20;7.70;;;14.20;99.90;;;;;;4958825;28;20448;-86
2021/09/05 07:28:36;;;;;;;11.88;8.70;;;14.10;99.90;;;;;;4959079;28;20451;-87
2021/09/05 07:31:03;;;;;;;9.67;8.40;;;14.60;99.90;;;;;;4960393;28;20259;-86
2021/09/05 07:33:30;;;;;;;9.43;7.37;;;14.40;99.90;;;;;;4958704;28;20466;-87
2021/09/05 07:35:56;;;;;;;12.90;9.83;;;14.50;99.90;;;;;;4959468;28;20446;-86
2021/09/05 07:38:23;;;;;;;12.17;8.50;;;14.50;99.90;;;;;;4960634;28;20819;-87
2021/09/05 07:40:50;;;;;;;11.70;8.23;;;14.60;99.90;;;;;;4964884;28;20446;-87
2021/09/05 07:43:16;;;;;;;12.33;8.50;;;14.60;99.90;;;;;;4963531;28;20447;-87
2021/09/05 07:45:44;;;;;;;13.43;8.63;;;14.60;99.90;;;;;;4962862;28;20454;-87
2021/09/05 07:48:11;;;;;;;11.97;8.20;;;14.60;99.90;;;;;;4962869;28;20450;-87
2021/09/05 07:50:37;;;;;;;9.17;7.97;;;14.60;99.90;;;;;;4962857;28;20485;-87
2021/09/05 07:53:04;;;;;;;10.40;7.50;;;14.70;99.90;;;;;;4963692;28;20482;-86
2021/09/05 07:55:30;;;;;;;15.10;8.07;;;14.70;99.90;;;;;;4963845;28;20509;-86
2021/09/05 07:57:57;;;;;;;15.07;8.93;;;14.80;99.90;;;;;;4965717;28;20518;-86
2021/09/05 08:00:24;;;;;;;11.40;8.27;;;14.80;99.90;;;;;;4977909;28;20466;-86
2021/09/05 08:02:52;;;;;;;7.80;7.00;;;14.80;99.90;;;;;;4981310;28;20454;-87
2021/09/05 08:05:19;;;;;;;15.37;10.63;;;14.90;99.90;;;;;;4979630;28;20470;-87
2021/09/05 08:07:45;;;;;;;13.83;8.27;;;14.90;99.90;;;;;;4980967;28;20470;-88
2021/09/05 08:10:12;;;;;;;11.10;7.93;;;14.90;99.90;;;;;;4976534;28;20479;-87
2021/09/05 08:12:39;;;;;;;10.10;7.70;;;15.00;99.90;;;;;;4975790;28;20510;-87
2021/09/05 08:15:07;;;;;;;9.33;7.47;;;15.10;99.90;;;;;;4970094;28;20442;-87
2021/09/05 08:17:34;;;;;;;9.37;7.17;;;15.10;99.90;;;;;;4963333;28;20447;-87
2021/09/05 08:20:01;;;;;;;9.10;8.17;;;15.20;99.90;;;;;;4963266;28;20459;-87
2021/09/05 08:22:28;;;;;;;13.43;9.50;;;15.20;99.90;;;;;;4962058;28;20502;-87
2021/09/05 08:24:55;;;;;;;12.90;9.03;;;15.30;99.90;;;;;;4971692;28;20430;-87
2021/09/05 08:27:21;;;;;;;12.90;9.00;;;15.40;99.90;;;;;;4981486;28;20442;-88
2021/09/05 08:29:48;;;;;;;11.37;8.70;;;15.40;99.90;;;;;;4981096;28;20471;-87
2021/09/05 08:32:14;;;;;;;11.30;8.37;;;15.40;99.90;;;;;;4965725;28;20905;-88
2021/09/05 08:34:41;;;;;;;12.63;8.47;;;15.50;99.90;;;;;;4965027;28;20454;-87
2021/09/05 08:37:09;;;;;;;11.90;9.37;;;15.60;99.90;;;;;;4963761;28;20458;-87
2021/09/05 08:39:36;;;;;;;13.63;9.00;;;15.50;99.90;;;;;;4962370;28;20523;-86
2021/09/05 08:42:03;;;;;;;11.70;9.20;;;15.70;99.90;;;;;;4972664;28;20510;-87
2021/09/05 08:44:30;;;;;;;11.93;8.90;;;15.70;99.90;;;;;;4977287;29;20849;-87
2021/09/05 08:46:57;;;;;;;16.10;9.40;;;15.80;99.90;;;;;;4978431;28;20422;-86
2021/09/05 08:49:27;;;;;;;13.40;8.97;;;15.70;99.90;;;;;;4974188;28;20528;-87
2021/09/05 08:51:56;;;;;;;12.13;7.83;;;15.90;99.90;;;;;;4962921;28;20471;-87
2021/09/05 08:54:25;;;;;;;8.83;7.90;;;15.80;99.90;;;;;;4963323;28;20455;-87
2021/09/05 08:56:53;;;;;;;12.37;8.80;;;16.00;99.90;;;;;;4962061;28;20478;-87
2021/09/05 08:59:20;;;;;;;8.90;8.00;;;16.00;99.90;;;;;;4962495;28;20459;-86
2021/09/05 09:01:53;;;;;;;11.57;8.70;;;15.90;99.90;;;;;;4963849;28;20471;-86
2021/09/05 09:04:20;;;;;;;11.43;8.80;;;15.90;99.90;;;;;;4961961;28;20431;-86
2021/09/05 09:06:46;;;;;;;12.63;9.53;;;16.00;99.90;;;;;;4963777;28;20458;-86
2021/09/05 09:09:13;;;;;;;16.07;10.63;;;16.00;99.90;;;;;;4961281;28;20458;-86
2021/09/05 09:11:52;;;;;;;12.50;9.83;;;16.00;99.90;;;;;;4962752;28;20553;-86
2021/09/05 09:14:20;;;;;;;13.60;8.40;;;16.00;99.90;;;;;;4974100;28;20446;-86
2021/09/05 09:16:47;;;;;;;16.03;10.47;;;16.00;99.90;;;;;;4974387;28;20482;-86
2021/09/05 09:19:25;;;;;;;12.77;9.83;;;15.90;99.90;;;;;;4974268;28;20482;-87
2021/09/05 09:21:53;;;;;;;13.97;10.50;;;16.10;99.90;;;;;;4968114;28;20481;-87
2021/09/05 09:24:23;;;;;;;12.30;9.30;;;16.10;99.90;;;;;;4967068;28;20818;-87
2021/09/05 09:26:59;;;;;;;12.87;9.40;;;16.10;99.90;;;;;;4964061;28;20446;-86
2021/09/05 09:29:29;;;;;;;12.77;11.03;;;16.20;99.90;;;;;;4962894;28;20509;-86
2021/09/05 09:32:01;;;;;;;13.33;9.53;;;16.30;99.90;;;;;;4964251;28;20490;-87
2021/09/05 09:34:28;;;;;;;17.70;12.30;;;16.60;99.90;;;;;;4961609;28;20450;-86
2021/09/05 09:36:58;;;;;;;14.87;11.00;;;16.60;99.90;;;;;;4961690;28;20454;-87
2021/09/05 09:39:28;;;;;;;16.30;11.57;;;16.70;99.90;;;;;;4962077;28;20478;-86
2021/09/05 09:41:55;;;;;;;13.27;10.93;;;16.80;99.90;;;;;;4960740;28;20502;-86
2021/09/05 09:44:30;;;;;;;11.83;10.27;;;16.90;99.90;;;;;;4961749;28;21013;-86
2021/09/05 09:47:10;;;;;;;14.97;10.03;;;16.90;99.90;;;;;;4963138;28;20442;-87
2021/09/05 09:49:50;;;;;;;13.27;10.43;;;17.00;99.90;;;;;;4962234;28;20449;-86
2021/09/05 09:52:17;;;;;;;10.87;8.87;;;17.30;99.90;;;;;;4964396;28;20525;-87
2021/09/05 09:54:44;;;;;;;12.90;9.30;;;17.20;99.90;;;;;;4962380;28;20439;-87
2021/09/05 09:57:10;;;;;;;12.10;9.00;;;17.30;99.90;;;;;;4961524;28;21020;-87
2021/09/05 09:59:39;;;;;;;9.47;8.03;;;17.10;99.90;;;;;;4959490;28;20459;-87
2021/09/05 10:02:06;;;;;;;9.83;8.77;;;17.20;99.90;;;;;;4959403;28;20475;-87
2021/09/05 10:04:33;;;;;;;12.40;9.00;;;17.20;99.90;;;;;;4958971;28;20446;-87
2021/09/05 10:07:01;;;;;;;12.70;9.87;;;17.20;99.90;;;;;;4959326;28;20456;-87
2021/09/05 10:09:29;;;;;;;10.33;9.20;;;17.30;99.90;;;;;;4961530;28;20455;-86
2021/09/05 10:11:56;;;;;;;12.67;10.03;;;17.40;99.90;;;;;;4963727;28;20494;-86
2021/09/05 10:14:24;;;;;;;11.23;9.70;;;17.10;99.90;;;;;;4967791;28;20451;-86
2021/09/05 10:16:52;;;;;;;10.83;9.07;;;17.20;99.90;;;;;;4969467;28;20478;-86
2021/09/05 10:19:19;;;;;;;11.53;9.20;;;17.20;99.90;;;;;;4977201;28;20443;-86
2021/09/05 10:21:47;;;;;;;13.40;8.90;;;17.20;99.90;;;;;;4977221;28;20458;-87
2021/09/05 10:24:15;;;;;;;15.10;10.07;;;17.20;99.90;;;;;;4978246;28;20439;-87
2021/09/05 10:27:01;;;;;;;15.20;11.30;;;17.30;99.90;;;;;;4979800;28;20434;-86
2021/09/05 10:29:28;;;;;;;11.10;8.63;;;17.60;99.90;;;;;;4979190;28;20426;-88
2021/09/05 10:31:57;;;;;;;15.00;9.90;;;17.80;99.90;;;;;;4979840;28;20483;-88
2021/09/05 10:34:32;;;;;;;11.00;8.67;;;17.90;99.90;;;;;;4980022;28;20431;-87
2021/09/05 10:37:05;;;;;;;9.93;8.73;;;17.60;99.90;;;;;;4970413;28;20514;-87
2021/09/05 10:39:32;;;;;;;14.87;9.93;;;18.00;99.90;;;;;;4965350;28;20439;-87
2021/09/05 10:42:01;;;;;;;13.00;9.17;;;18.30;99.90;;;;;;4962934;28;20546;-86
2021/09/05 10:44:28;;;;;;;10.00;7.50;;;17.90;99.90;;;;;;4962833;28;20447;-87
2021/09/05 10:46:56;;;;;;;14.67;9.47;;;18.00;99.90;;;;;;4960173;28;20478;-87
2021/09/05 10:49:39;;;;;;;10.67;8.23;;;16.70;99.90;;;;;;4959282;28;20482;-87
2021/09/05 10:52:06;;;;;;;12.10;9.13;;;18.30;99.90;;;;;;4959842;28;20554;-86
2021/09/05 10:54:44;;;;;;;16.43;10.27;;;18.20;99.90;;;;;;4972801;28;20454;-87
2021/09/05 10:57:10;;;;;;;11.63;9.53;;;18.40;99.90;;;;;;4979709;28;20439;-87
2021/09/05 10:59:38;;;;;;;11.27;8.90;;;18.30;99.90;;;;;;4979220;28;20438;-88
2021/09/05 11:02:06;;;;;;;11.93;9.73;;;18.50;99.90;;;;;;4979604;28;20455;-87
2021/09/05 11:04:45;;;;;;;10.30;8.03;;;18.60;99.90;;;;;;4962485;28;20513;-87
2021/09/05 11:07:31;;;;;;;10.97;8.70;;;18.50;99.90;;;;;;4960353;28;20482;-88
2021/09/05 11:09:58;;;;;;;9.90;8.67;;;18.70;99.90;;;;;;4969958;28;20430;-87
2021/09/05 11:12:42;;;;;;;10.33;8.53;;;18.70;99.90;;;;;;4976045;28;20475;-87
2021/09/05 11:15:19;;;;;;;11.23;8.60;;;18.70;99.90;;;;;;4980157;28;20482;-87
2021/09/05 11:17:54;;;;;;;10.20;8.07;;;18.70;99.90;;;;;;4969023;28;20461;-87
2021/09/05 11:20:21;;;;;;;9.40;7.70;;;18.70;99.90;;;;;;4964269;28;20513;-87
2021/09/05 11:22:49;;;;;;;11.23;9.13;;;18.80;99.90;;;;;;4964444;28;20517;-86
2021/09/05 11:25:22;;;;;;;14.47;9.53;;;18.80;99.90;;;;;;4963930;28;20993;-87
2021/09/05 11:28:00;;;;;;;9.67;7.67;;;18.90;99.90;;;;;;4964026;28;20454;-87
2021/09/05 11:30:30;;;;;;;10.07;7.80;;;19.10;99.90;;;;;;4963817;28;20575;-87
2021/09/05 11:33:01;;;;;;;9.57;7.53;;;19.20;99.90;;;;;;4963614;28;20865;-86
2021/09/05 11:35:39;;;;;;;10.90;7.57;;;19.30;99.90;;;;;;4963883;28;20552;-87
2021/09/05 11:38:05;;;;;;;15.17;10.20;;;19.30;99.90;;;;;;4963542;28;20442;-87
2021/09/05 11:40:41;;;;;;;11.20;9.53;;;19.30;99.90;;;;;;4962914;28;20485;-87
2021/09/05 11:43:07;;;;;;;12.27;10.63;;;19.30;99.90;;;;;;4973201;28;20477;-87
2021/09/05 11:45:38;;;;;;;9.47;8.33;;;19.30;99.90;;;;;;4962979;28;20489;-87
2021/09/05 11:48:08;;;;;;;10.40;8.60;;;19.30;99.90;;;;;;4963392;28;20457;-87
2021/09/05 11:50:35;;;;;;;8.60;7.60;;;19.30;99.90;;;;;;4964021;28;21016;-87
2021/09/05 11:53:02;;;;;;;13.50;9.40;;;19.30;99.90;;;;;;4969388;28;20486;-87
2021/09/05 11:55:29;;;;;;;9.83;8.40;;;19.40;99.90;;;;;;4970769;28;20762;-87
2021/09/05 11:57:57;;;;;;;11.63;8.90;;;19.40;99.90;;;;;;4966272;29;20450;-87
2021/09/05 12:00:32;;;;;;;11.83;8.80;;;19.50;99.90;;;;;;4962023;28;20877;-87
2021/09/05 12:03:01;;;;;;;12.40;8.60;;;19.60;99.90;;;;;;4963857;28;20505;-87
2021/09/05 12:05:32;;;;;;;10.53;8.47;;;19.70;99.90;;;;;;4964238;28;20442;-87
2021/09/05 12:07:59;;;;;;;13.30;9.37;;;19.70;99.90;;;;;;4964927;29;20435;-87
2021/09/05 12:10:28;;;;;;;12.07;9.27;;;19.70;99.90;;;;;;4965969;28;20447;-87
2021/09/05 12:13:04;;;;;;;11.40;7.97;;;19.80;99.90;;;;;;4973384;28;20489;-86
2021/09/05 12:15:36;;;;;;;11.50;9.17;;;19.80;99.90;;;;;;4974866;28;20750;-87
2021/09/05 12:18:03;;;;;;;11.50;9.27;;;19.80;99.90;;;;;;4979158;28;20432;-87
2021/09/05 12:20:43;;;;;;;9.90;8.90;;;19.80;99.90;;;;;;4982211;28;20450;-87
2021/09/05 12:23:22;;;;;;;12.23;9.17;;;19.80;99.90;;;;;;4981982;28;20490;-89
2021/09/05 12:25:50;;;;;;;13.00;8.10;;;19.80;99.90;;;;;;4978808;28;20447;-88
2021/09/05 12:28:23;;;;;;;13.77;9.67;;;19.80;99.90;;;;;;4975649;28;20455;-87
2021/09/05 12:30:51;;;;;;;10.50;8.63;;;19.90;99.90;;;;;;4977102;28;20483;-87
2021/09/05 12:34:18;;;;;;;12.40;9.67;;;20.00;99.90;;;;;;5106129;23;20597;-84
2021/09/05 12:37:58;;;;;;;13.97;10.93;;;20.30;99.90;;;;;;4837919;29;20475;-84
2021/09/05 12:40:52;;;;;;;13.83;9.53;;;20.90;99.90;;;;;;4893105;29;20998;-85
2021/09/05 13:11:19;;;;;;;12.10;10.20;;;20.40;99.90;;;;;;4844411;29;20455;-85
2021/09/05 13:17:27;;;;;;;14.13;10.10;;;20.20;99.90;;;;;;4940251;29;20461;-85
2021/09/05 13:46:10;;;;;;;15.80;11.33;;;20.30;99.90;;;;;;4726065;30;20470;-85
2021/09/05 13:52:19;;;;;;;28.93;17.70;;;19.80;99.90;;;;;;4831273;29;20491;-85
2021/09/05 14:01:54;;;;;;;20.40;14.17;;;20.40;99.90;;;;;;4879529;29;20442;-84
2021/09/05 14:07:25;;;;;;;24.07;19.23;;;20.10;99.90;;;;;;4938769;29;20538;-84
2021/09/05 14:32:21;;;;;;;33.00;22.10;;;20.20;99.90;;;;;;4902617;29;20281;-84
2021/09/05 14:35:14;;;;;;;21.40;16.90;;;20.50;99.90;;;;;;4907108;29;20467;-84
2021/09/05 14:57:38;;;;;;;16.77;12.63;;;20.30;99.90;;;;;;4899177;29;20465;-85
2021/09/05 15:00:22;;;;;;;19.33;13.90;;;20.60;99.90;;;;;;4872803;29;21027;-84
2021/09/05 15:03:28;;;;;;;23.23;18.20;;;20.60;99.90;;;;;;4900616;29;20504;-84